createdAt,value
2019-06-20T00:02:10.767Z,25.30
2019-06-20T00:04:41.105Z,25.40
2019-06-20T00:07:11.703Z,25.40
2019-06-20T00:09:42.104Z,25.50
2019-06-20T00:12:12.567Z,25.50
2019-06-20T00:14:44.417Z,25.60
2019-06-20T00:17:14.780Z,25.60
2019-06-20T00:19:45.050Z,25.70
2019-06-20T00:22:15.355Z,25.70
2019-06-20T00:24:45.715Z,25.70
2019-06-20T00:27:16.001Z,25.70
2019-06-20T00:29:46.283Z,25.70
2019-06-20T00:32:16.593Z,25.70
2019-06-20T00:34:46.858Z,25.80
2019-06-20T00:37:17.230Z,25.80
2019-06-20T00:39:47.531Z,25.80
2019-06-20T00:42:17.903Z,25.70
2019-06-20T00:44:48.181Z,25.60
2019-06-20T00:47:18.480Z,25.50
2019-06-20T00:49:48.753Z,25.40
2019-06-20T00:52:19.065Z,25.40
2019-06-20T00:54:49.377Z,25.30
2019-06-20T00:57:20.012Z,25.30
2019-06-20T00:59:50.289Z,25.30
2019-06-20T01:02:20.659Z,25.30
2019-06-20T01:04:50.937Z,25.30
2019-06-20T01:07:21.242Z,25.30
2019-06-20T01:09:51.538Z,25.20
2019-06-20T01:12:21.832Z,25.20
2019-06-20T01:14:52.176Z,25.20
2019-06-20T01:17:22.482Z,25.20
2019-06-20T01:19:52.750Z,25.10
2019-06-20T01:22:23.122Z,25.10
2019-06-20T01:24:53.708Z,25.10
2019-06-20T01:27:24.410Z,25.10
2019-06-20T01:29:54.705Z,25.00
2019-06-20T01:32:25.016Z,24.90
2019-06-20T01:34:55.388Z,24.90
2019-06-20T01:37:25.662Z,24.90
2019-06-20T01:39:55.960Z,24.90
2019-06-20T01:42:26.430Z,24.80
2019-06-20T01:44:57.002Z,24.80
2019-06-20T01:47:27.316Z,24.80
2019-06-20T01:49:57.951Z,24.80
2019-06-20T01:52:28.231Z,24.70
2019-06-20T01:54:58.624Z,24.70
2019-06-20T01:57:29.003Z,24.60
2019-06-20T01:59:59.447Z,24.60
2019-06-20T02:02:29.853Z,24.60
2019-06-20T02:05:00.171Z,24.60
2019-06-20T02:07:30.809Z,24.60
2019-06-20T02:10:01.106Z,24.50
2019-06-20T02:12:31.572Z,24.50
2019-06-20T02:15:01.883Z,24.50
2019-06-20T02:17:33.430Z,24.40
2019-06-20T02:20:05.334Z,24.40
2019-06-20T02:22:35.610Z,24.30
2019-06-20T02:25:08.085Z,24.30
2019-06-20T02:27:38.374Z,24.20
2019-06-20T02:30:08.967Z,24.20
2019-06-20T02:32:39.240Z,24.10
2019-06-20T02:35:09.626Z,24.10
2019-06-20T02:37:39.975Z,24.00
2019-06-20T02:40:10.623Z,24.00
2019-06-20T02:42:41.184Z,24.00
2019-06-20T02:45:11.894Z,24.00
2019-06-20T02:47:42.240Z,24.00
2019-06-20T02:50:13.350Z,24.00
2019-06-20T02:52:43.762Z,24.00
2019-06-20T02:55:14.489Z,24.00
2019-06-20T02:57:44.832Z,23.90
2019-06-20T03:00:16.040Z,23.90
2019-06-20T03:02:46.307Z,23.90
2019-06-20T03:05:16.846Z,23.90
2019-06-20T03:07:47.121Z,23.90
2019-06-20T03:10:17.663Z,23.90
2019-06-20T03:12:48.230Z,23.90
2019-06-20T03:15:19.742Z,23.90
2019-06-20T03:17:50.096Z,23.90
2019-06-20T03:20:20.707Z,23.90
2019-06-20T03:22:51.101Z,23.90
2019-06-20T03:25:22.487Z,23.90
2019-06-20T03:27:52.782Z,23.90
2019-06-20T03:30:23.254Z,23.90
2019-06-20T03:32:53.626Z,23.90
2019-06-20T03:35:23.892Z,23.90
2019-06-20T03:37:54.260Z,23.80
2019-06-20T03:40:24.602Z,23.80
2019-06-20T03:42:54.910Z,23.80
2019-06-20T03:45:25.207Z,23.80
2019-06-20T03:47:55.531Z,23.80
2019-06-20T03:50:26.018Z,23.70
2019-06-20T03:53:02.287Z,23.70
2019-06-20T03:55:33.796Z,23.70
2019-06-20T03:58:04.702Z,23.70
2019-06-20T04:00:36.612Z,23.70
2019-06-20T04:03:07.262Z,23.70
2019-06-20T04:05:37.541Z,23.70
2019-06-20T04:08:07.906Z,23.70
2019-06-20T04:10:38.446Z,23.70
2019-06-20T04:13:08.750Z,23.70
2019-06-20T04:15:39.096Z,23.80
2019-06-20T04:18:09.422Z,23.80
2019-06-20T04:20:39.685Z,23.80
2019-06-20T04:23:11.092Z,23.80
2019-06-20T04:25:41.434Z,23.80
2019-06-20T04:28:11.740Z,23.80
2019-06-20T04:30:42.007Z,23.80
2019-06-20T04:33:12.312Z,23.70
2019-06-20T04:35:42.733Z,23.80
2019-06-20T04:38:14.276Z,23.70
2019-06-20T04:40:44.787Z,23.80
2019-06-20T04:43:15.081Z,23.80
2019-06-20T04:45:50.180Z,23.80
2019-06-20T04:48:20.719Z,23.80
2019-06-20T04:50:51.010Z,23.80
2019-06-20T04:53:21.308Z,23.90
2019-06-20T04:55:51.851Z,23.90
2019-06-20T04:58:22.302Z,24.00
2019-06-20T05:00:52.640Z,24.00
2019-06-20T05:03:22.949Z,24.00
2019-06-20T05:05:53.246Z,24.00
2019-06-20T05:08:23.860Z,24.00
2019-06-20T05:10:54.246Z,24.00
2019-06-20T05:13:24.628Z,24.00
2019-06-20T05:15:55.062Z,24.10
2019-06-20T05:18:25.408Z,24.10
2019-06-20T05:20:55.774Z,24.10
2019-06-20T05:23:26.076Z,24.10
2019-06-20T05:25:56.377Z,24.10
2019-06-20T05:28:26.655Z,24.10
2019-06-20T05:30:56.963Z,24.10
2019-06-20T05:33:27.304Z,24.10
2019-06-20T05:35:57.599Z,24.10
2019-06-20T05:38:27.947Z,24.10
2019-06-20T05:40:58.250Z,24.10
2019-06-20T05:43:28.603Z,24.10
2019-06-20T05:46:08.728Z,24.10
2019-06-20T05:48:30.890Z,24.10
2019-06-20T05:51:01.186Z,24.10
2019-06-20T05:53:31.549Z,24.10
2019-06-20T05:56:01.844Z,24.20
2019-06-20T05:58:32.945Z,24.30
2019-06-20T06:01:04.436Z,24.30
2019-06-20T06:03:34.888Z,24.30
2019-06-20T06:06:05.337Z,24.30
2019-06-20T06:08:35.620Z,24.30
2019-06-20T06:11:06.008Z,24.40
2019-06-20T06:13:36.310Z,24.40
2019-06-20T06:16:06.733Z,24.50
2019-06-20T06:18:36.966Z,24.60
2019-06-20T06:21:07.343Z,24.60
2019-06-20T06:23:37.614Z,24.70
2019-06-20T06:26:07.917Z,24.90
2019-06-20T06:28:38.287Z,25.20
2019-06-20T06:31:08.633Z,25.50
2019-06-20T06:33:38.921Z,25.70
2019-06-20T06:36:09.247Z,25.80
2019-06-20T06:38:39.632Z,25.90
2019-06-20T06:41:09.978Z,26.00
2019-06-20T06:43:41.997Z,26.10
2019-06-20T06:46:12.678Z,26.10
2019-06-20T06:48:43.121Z,26.30
2019-06-20T06:51:14.491Z,26.70
2019-06-20T06:53:44.787Z,27.50
2019-06-20T06:56:15.128Z,28.50
2019-06-20T06:58:45.426Z,29.50
2019-06-20T07:01:15.757Z,30.50
2019-06-20T07:03:46.128Z,31.50
2019-06-20T07:06:16.475Z,32.40
2019-06-20T07:08:46.775Z,32.80
2019-06-20T07:11:17.056Z,33.10
2019-06-20T07:13:47.350Z,33.30
2019-06-20T07:16:17.631Z,33.40
2019-06-20T07:18:48.750Z,33.40
2019-06-20T07:21:19.035Z,33.10
2019-06-20T07:23:49.369Z,32.90
2019-06-20T07:26:19.624Z,32.70
2019-06-20T07:28:51.613Z,32.40
2019-06-20T07:31:21.896Z,32.20
2019-06-20T07:33:52.202Z,32.00
2019-06-20T07:36:22.559Z,31.90
2019-06-20T07:38:52.866Z,31.70
2019-06-20T07:41:23.198Z,31.50
2019-06-20T07:43:53.600Z,31.30
2019-06-20T07:46:23.901Z,31.10
2019-06-20T07:48:54.275Z,31.00
2019-06-20T07:51:24.690Z,30.80
2019-06-20T07:53:55.060Z,30.60
2019-06-20T07:56:25.366Z,30.50
2019-06-20T07:58:55.710Z,30.30
2019-06-20T08:01:26.134Z,30.10
2019-06-20T08:03:56.563Z,29.80
2019-06-20T08:06:26.994Z,29.50
2019-06-20T08:08:57.269Z,29.10
2019-06-20T08:11:27.718Z,28.90
2019-06-20T08:13:58.004Z,28.80
2019-06-20T08:16:28.324Z,28.80
2019-06-20T08:18:58.684Z,28.80
2019-06-20T08:21:29.153Z,28.70
2019-06-20T08:23:59.559Z,28.60
2019-06-20T08:26:30.601Z,28.40
2019-06-20T08:29:16.687Z,28.40
2019-06-20T08:31:32.985Z,28.40
2019-06-20T08:34:04.426Z,28.30
2019-06-20T08:36:34.817Z,28.20
2019-06-20T08:39:09.005Z,28.00
2019-06-20T08:41:39.595Z,28.00
2019-06-20T08:44:10.120Z,28.00
2019-06-20T08:46:40.514Z,28.00
2019-06-20T08:49:10.776Z,28.00
2019-06-20T08:51:41.091Z,28.10
2019-06-20T08:54:11.385Z,28.20
2019-06-20T08:56:41.870Z,28.30
2019-06-20T08:59:24.003Z,28.30
2019-06-20T09:01:44.618Z,28.30
2019-06-20T09:04:15.110Z,28.20
2019-06-20T09:06:45.435Z,28.20
2019-06-20T09:09:15.725Z,28.30
2019-06-20T09:11:46.026Z,28.40
2019-06-20T09:14:16.344Z,28.60
2019-06-20T09:16:46.642Z,28.70
2019-06-20T09:19:16.950Z,28.70
2019-06-20T09:21:47.299Z,28.70
2019-06-20T09:24:17.746Z,28.80
2019-06-20T09:26:48.062Z,28.80
2019-06-20T09:29:19.870Z,28.70
2019-06-20T09:31:52.512Z,28.60
2019-06-20T09:34:22.311Z,28.40
2019-06-20T09:36:53.674Z,28.30
2019-06-20T09:39:24.464Z,28.30
2019-06-20T09:41:54.757Z,28.30
2019-06-20T09:44:25.133Z,28.20
2019-06-20T09:46:56.364Z,28.20
2019-06-20T09:49:26.804Z,28.20
2019-06-20T09:51:58.642Z,28.20
2019-06-20T09:54:29.090Z,28.10
2019-06-20T09:56:59.432Z,28.10
2019-06-20T09:59:29.776Z,28.10
2019-06-20T10:02:00.154Z,28.10
2019-06-20T10:04:30.512Z,28.10
2019-06-20T10:07:00.871Z,28.10
2019-06-20T10:09:31.160Z,28.10
2019-06-20T10:12:01.620Z,28.10
2019-06-20T10:14:32.086Z,28.00
2019-06-20T10:17:02.359Z,27.90
2019-06-20T10:19:32.677Z,27.80
2019-06-20T10:22:02.959Z,27.80
2019-06-20T10:24:33.265Z,27.80
2019-06-20T10:27:03.731Z,27.70
2019-06-20T10:29:34.175Z,27.70
2019-06-20T10:32:04.671Z,27.60
2019-06-20T10:34:35.032Z,27.60
2019-06-20T10:37:05.404Z,27.60
2019-06-20T10:39:35.751Z,27.50
2019-06-20T10:42:06.399Z,27.50
2019-06-20T10:44:36.681Z,27.50
2019-06-20T10:47:06.982Z,27.60
2019-06-20T10:49:37.261Z,27.70
2019-06-20T10:52:09.360Z,27.80
2019-06-20T10:54:41.619Z,27.80
2019-06-20T10:57:11.641Z,27.90
2019-06-20T10:59:42.745Z,28.00
2019-06-20T11:02:13.284Z,28.10
2019-06-20T11:04:45.658Z,28.20
2019-06-20T11:07:16.079Z,28.30
2019-06-20T11:09:47.149Z,28.40
2019-06-20T11:12:17.705Z,28.50
2019-06-20T11:14:48.471Z,28.50
2019-06-20T11:17:18.817Z,28.60
2019-06-20T11:19:49.091Z,28.70
2019-06-20T11:22:19.473Z,28.90
2019-06-20T11:24:49.740Z,29.00
2019-06-20T11:27:20.040Z,29.00
2019-06-20T11:29:50.330Z,29.00
2019-06-20T11:32:20.712Z,29.00
2019-06-20T11:34:51.077Z,29.00
2019-06-20T11:37:21.404Z,29.00
2019-06-20T11:39:51.691Z,29.00
2019-06-20T11:42:22.073Z,28.90
2019-06-20T11:44:52.352Z,29.00
2019-06-20T11:47:22.736Z,29.00
2019-06-20T11:49:53.095Z,29.00
2019-06-20T11:52:23.395Z,29.00
2019-06-20T11:54:53.678Z,28.90
2019-06-20T11:57:24.058Z,28.80
2019-06-20T11:59:54.550Z,28.80
2019-06-20T12:02:24.795Z,28.70
2019-06-20T12:04:55.109Z,28.70
2019-06-20T12:07:25.391Z,28.60
2019-06-20T12:09:55.684Z,28.60
2019-06-20T12:12:25.973Z,28.60
2019-06-20T12:14:56.452Z,28.60
2019-06-20T12:17:26.812Z,28.60
2019-06-20T12:19:57.185Z,28.70
2019-06-20T12:22:27.723Z,28.70
2019-06-20T12:24:58.118Z,28.80
2019-06-20T12:27:28.392Z,28.70
2019-06-20T12:29:58.695Z,28.50
2019-06-20T12:32:30.106Z,28.40
2019-06-20T12:35:00.400Z,28.30
2019-06-20T12:37:30.800Z,28.30
2019-06-20T12:40:01.086Z,28.20
2019-06-20T12:42:31.426Z,28.10
2019-06-20T12:45:01.891Z,28.00
2019-06-20T12:47:32.155Z,27.80
2019-06-20T12:50:02.546Z,27.70
2019-06-20T12:52:32.920Z,27.60
2019-06-20T12:55:03.382Z,27.60
2019-06-20T12:57:33.815Z,27.50
2019-06-20T13:00:09.800Z,27.40
2019-06-20T13:02:42.033Z,27.30
2019-06-20T13:05:14.606Z,27.30
2019-06-20T13:07:46.355Z,27.20
2019-06-20T13:10:17.764Z,27.20
2019-06-20T13:12:48.857Z,27.20
2019-06-20T13:15:19.465Z,27.10
2019-06-20T13:17:50.068Z,27.10
2019-06-20T13:20:20.724Z,27.10
2019-06-20T13:22:51.062Z,27.10
2019-06-20T13:25:21.435Z,27.00
2019-06-20T13:27:51.806Z,27.00
2019-06-20T13:30:22.650Z,27.00
2019-06-20T13:32:53.014Z,27.00
2019-06-20T13:35:23.366Z,26.90
2019-06-20T13:37:53.676Z,27.00
2019-06-20T13:40:24.269Z,27.00
2019-06-20T13:42:54.950Z,27.00
2019-06-20T13:45:27.085Z,26.90
2019-06-20T13:47:57.403Z,26.80
2019-06-20T13:50:28.137Z,26.70
2019-06-20T13:52:59.502Z,26.60
2019-06-20T13:55:29.795Z,26.60
2019-06-20T13:58:00.084Z,26.50
2019-06-20T14:00:32.382Z,26.40
2019-06-20T14:03:02.822Z,26.30
2019-06-20T14:05:33.100Z,26.30
2019-06-20T14:08:03.455Z,26.30
2019-06-20T14:10:33.695Z,26.30
2019-06-20T14:13:18.224Z,26.20
2019-06-20T14:15:37.799Z,26.20
2019-06-20T14:18:08.182Z,26.30
2019-06-20T14:20:38.579Z,26.30
2019-06-20T14:23:08.916Z,26.40
2019-06-20T14:25:39.163Z,26.50
2019-06-20T14:28:09.490Z,26.50
2019-06-20T14:30:39.826Z,26.60
2019-06-20T14:33:10.130Z,26.60
2019-06-20T14:35:43.494Z,26.70
2019-06-20T14:38:12.816Z,26.70
2019-06-20T14:40:44.087Z,26.70
2019-06-20T14:43:15.292Z,26.70
2019-06-20T14:45:46.891Z,26.70
2019-06-20T14:48:17.197Z,26.70
2019-06-20T14:50:47.865Z,26.70
2019-06-20T14:53:19.599Z,26.80
2019-06-20T14:55:49.906Z,26.80
2019-06-20T14:58:20.270Z,26.80
2019-06-20T15:00:51.844Z,26.90
2019-06-20T15:03:22.461Z,26.90
2019-06-20T15:05:52.768Z,26.90
2019-06-20T15:08:23.131Z,26.90
2019-06-20T15:10:54.012Z,26.90
2019-06-20T15:13:24.357Z,26.90
2019-06-20T15:15:55.668Z,26.80
2019-06-20T15:18:26.197Z,26.70
2019-06-20T15:20:59.280Z,26.70
2019-06-20T15:23:28.555Z,26.70
2019-06-20T15:25:58.935Z,26.80
2019-06-20T15:28:29.227Z,26.80
2019-06-20T15:30:59.584Z,26.80
2019-06-20T15:33:29.816Z,26.80
2019-06-20T15:36:00.140Z,26.80
2019-06-20T15:38:30.425Z,26.80
2019-06-20T15:41:00.748Z,26.80
2019-06-20T15:43:31.038Z,26.80
2019-06-20T15:46:01.386Z,26.80
2019-06-20T15:48:31.735Z,26.90
2019-06-20T15:51:02.038Z,26.90
2019-06-20T15:53:32.390Z,26.90
2019-06-20T15:56:02.690Z,26.90
2019-06-20T15:58:33.015Z,27.00
2019-06-20T16:01:03.361Z,27.00
2019-06-20T16:03:33.712Z,27.10
2019-06-20T16:06:04.469Z,27.10
2019-06-20T16:08:34.764Z,27.10
2019-06-20T16:11:05.191Z,27.10
2019-06-20T16:13:35.509Z,27.10
2019-06-20T16:16:05.992Z,27.00
2019-06-20T16:18:36.321Z,27.00
2019-06-20T16:21:06.637Z,27.00
2019-06-20T16:23:37.043Z,27.00
2019-06-20T16:26:07.425Z,27.00
2019-06-20T16:28:38.792Z,27.00
2019-06-20T16:31:23.126Z,27.00
2019-06-20T16:33:42.123Z,27.00
2019-06-20T16:36:13.245Z,27.00
2019-06-20T16:38:44.088Z,27.00
2019-06-20T16:41:14.464Z,27.00
2019-06-20T16:43:44.773Z,27.00
2019-06-20T16:46:15.048Z,26.90
2019-06-20T16:48:45.452Z,26.90
2019-06-20T16:51:15.725Z,26.90
2019-06-20T16:53:46.043Z,26.90
2019-06-20T16:56:16.338Z,26.90
2019-06-20T16:58:46.786Z,26.90
2019-06-20T17:01:17.269Z,26.90
2019-06-20T17:03:47.575Z,26.90
2019-06-20T17:06:17.923Z,26.90
2019-06-20T17:08:49.213Z,26.90
2019-06-20T17:11:19.483Z,26.80
2019-06-20T17:13:49.922Z,26.80
2019-06-20T17:16:20.315Z,26.70
2019-06-20T17:18:50.620Z,26.70
2019-06-20T17:21:20.974Z,26.70
2019-06-20T17:23:51.507Z,26.70
2019-06-20T17:26:21.791Z,26.60
2019-06-20T17:28:52.094Z,26.60
2019-06-20T17:31:22.377Z,26.70
2019-06-20T17:33:57.648Z,26.60
2019-06-20T17:36:26.014Z,26.60
2019-06-20T17:38:56.355Z,26.60
2019-06-20T17:41:26.654Z,26.60
2019-06-20T17:43:56.977Z,26.60
2019-06-20T17:46:27.256Z,26.60
2019-06-20T17:48:57.552Z,26.60
2019-06-20T17:51:27.835Z,26.60
2019-06-20T17:53:58.119Z,26.50
2019-06-20T17:56:28.547Z,26.40
2019-06-20T17:58:58.878Z,26.40
2019-06-20T18:01:29.167Z,26.40
2019-06-20T18:04:12.996Z,26.30
2019-06-20T18:06:31.578Z,26.30
2019-06-20T18:09:01.859Z,26.20
2019-06-20T18:11:33.855Z,26.20
2019-06-20T18:14:04.427Z,26.10
2019-06-20T18:16:34.722Z,26.00
2019-06-20T18:19:05.270Z,26.00
2019-06-20T18:21:35.643Z,26.00
2019-06-20T18:24:07.875Z,25.90
2019-06-20T18:26:38.179Z,25.90
2019-06-20T18:29:08.453Z,25.90
2019-06-20T18:31:42.201Z,25.90
2019-06-20T18:34:10.828Z,26.00
2019-06-20T18:36:43.417Z,26.00
2019-06-20T18:39:13.259Z,25.90
2019-06-20T18:41:43.579Z,25.90
2019-06-20T18:44:14.921Z,25.90
2019-06-20T18:46:45.298Z,25.80
2019-06-20T18:49:16.105Z,25.80
2019-06-20T18:51:47.038Z,25.80
2019-06-20T18:54:17.399Z,25.80
2019-06-20T18:56:47.836Z,25.70
2019-06-20T18:59:18.115Z,25.60
2019-06-20T19:01:48.433Z,25.50
2019-06-20T19:04:18.736Z,25.30
2019-06-20T19:06:49.114Z,25.20
2019-06-20T19:09:19.389Z,25.00
2019-06-20T19:11:49.702Z,24.90
2019-06-20T19:14:19.979Z,24.80
2019-06-20T19:16:50.343Z,24.70
2019-06-20T19:19:20.970Z,24.60
2019-06-20T19:21:51.272Z,24.50
2019-06-20T19:24:21.620Z,24.40
2019-06-20T19:26:51.937Z,24.40
2019-06-20T19:29:22.236Z,24.30
2019-06-20T19:31:52.520Z,24.20
2019-06-20T19:34:22.909Z,24.10
2019-06-20T19:36:53.190Z,24.10
2019-06-20T19:39:23.566Z,24.00
2019-06-20T19:41:53.848Z,24.00
2019-06-20T19:44:24.173Z,23.90
2019-06-20T19:46:54.515Z,23.90
2019-06-20T19:49:25.050Z,23.80
2019-06-20T19:51:55.320Z,23.70
2019-06-20T19:54:25.756Z,23.60
2019-06-20T19:56:56.265Z,23.60
2019-06-20T19:59:26.631Z,23.50
2019-06-20T20:01:57.140Z,23.50
2019-06-20T20:04:27.586Z,23.40
2019-06-20T20:06:57.863Z,23.40
2019-06-20T20:09:28.235Z,23.30
2019-06-20T20:11:58.524Z,23.30
2019-06-20T20:14:29.867Z,23.30
2019-06-20T20:17:00.247Z,23.20
2019-06-20T20:19:30.580Z,23.20
2019-06-20T20:22:01.933Z,23.20
2019-06-20T20:24:32.367Z,23.10
2019-06-20T20:27:02.727Z,23.10
2019-06-20T20:29:34.103Z,23.00
2019-06-20T20:32:04.551Z,23.00
2019-06-20T20:34:34.865Z,22.90
2019-06-20T20:37:05.272Z,22.80
2019-06-20T20:39:36.059Z,22.70
2019-06-20T20:42:06.747Z,22.70
2019-06-20T20:44:37.058Z,22.60
2019-06-20T20:47:07.356Z,22.60
2019-06-20T20:49:37.653Z,22.50
2019-06-20T20:52:08.145Z,22.50
2019-06-20T20:54:38.478Z,22.40
2019-06-20T20:57:08.935Z,22.40
2019-06-20T20:59:39.300Z,22.40
2019-06-20T21:02:09.613Z,22.40
2019-06-20T21:04:39.915Z,22.40
2019-06-20T21:07:10.290Z,22.30
2019-06-20T21:09:40.568Z,22.30
2019-06-20T21:12:11.018Z,22.30
2019-06-20T21:14:41.373Z,22.30
2019-06-20T21:17:11.822Z,22.30
2019-06-20T21:19:42.254Z,22.20
2019-06-20T21:22:12.547Z,22.20
2019-06-20T21:24:42.888Z,22.20
2019-06-20T21:27:13.227Z,22.20
2019-06-20T21:29:43.632Z,22.20
2019-06-20T21:32:13.930Z,22.10
2019-06-20T21:34:44.293Z,22.10
2019-06-20T21:37:14.584Z,22.10
2019-06-20T21:39:44.941Z,22.10
2019-06-20T21:42:15.950Z,22.10
2019-06-20T21:44:46.330Z,22.10
2019-06-20T21:47:16.655Z,22.10
2019-06-20T21:49:46.953Z,22.10
2019-06-20T21:52:17.527Z,22.00
2019-06-20T21:54:47.879Z,22.00
2019-06-20T21:57:18.288Z,22.00
2019-06-20T21:59:48.720Z,22.00
2019-06-20T22:02:19.261Z,22.00
2019-06-20T22:04:54.397Z,22.00
2019-06-20T22:07:22.618Z,22.00
2019-06-20T22:09:53.002Z,21.90
2019-06-20T22:12:23.379Z,21.90
2019-06-20T22:14:53.723Z,21.90
2019-06-20T22:17:24.098Z,21.90
2019-06-20T22:19:54.464Z,21.80
2019-06-20T22:22:24.821Z,21.80
2019-06-20T22:24:55.158Z,21.70
2019-06-20T22:27:25.438Z,21.70
2019-06-20T22:29:55.746Z,21.70
2019-06-20T22:32:26.104Z,21.70
2019-06-20T22:34:56.435Z,21.60
2019-06-20T22:37:26.793Z,21.60
2019-06-20T22:39:57.179Z,21.60
2019-06-20T22:42:27.482Z,21.60
2019-06-20T22:44:58.781Z,21.60
2019-06-20T22:47:29.167Z,21.60
2019-06-20T22:49:59.565Z,21.50
2019-06-20T22:52:29.856Z,21.50
2019-06-20T22:55:00.171Z,21.50
2019-06-20T22:57:30.487Z,21.50
2019-06-20T23:00:00.815Z,21.40
2019-06-20T23:02:31.164Z,21.40
2019-06-20T23:05:01.469Z,21.40
2019-06-20T23:07:32.896Z,21.40
2019-06-20T23:10:10.329Z,21.40
2019-06-20T23:12:36.974Z,21.30
2019-06-20T23:15:08.389Z,21.30
2019-06-20T23:17:38.768Z,21.30
2019-06-20T23:20:11.252Z,21.20
2019-06-20T23:22:41.557Z,21.20
2019-06-20T23:25:13.550Z,21.20
2019-06-20T23:27:43.934Z,21.10
2019-06-20T23:30:15.521Z,21.10
2019-06-20T23:32:45.841Z,21.10
2019-06-20T23:35:16.398Z,21.00
2019-06-20T23:37:46.680Z,21.00
2019-06-20T23:40:19.647Z,21.00
2019-06-20T23:42:50.016Z,21.00
2019-06-20T23:45:21.499Z,21.00
2019-06-20T23:47:51.796Z,20.90
2019-06-20T23:50:22.270Z,20.90
2019-06-20T23:52:54.558Z,20.90
2019-06-20T23:55:24.824Z,20.90
2019-06-20T23:57:55.109Z,20.80
